createdAt,value
2022-11-20T00:01:39.142Z,33.17
2022-11-20T00:03:44.085Z,39.58
2022-11-20T00:05:50.931Z,37.90
2022-11-20T00:07:55.818Z,41.40
2022-11-20T00:10:01.162Z,36.17
2022-11-20T00:12:06.403Z,36.95
2022-11-20T00:14:12.713Z,40.10
2022-11-20T00:16:19.384Z,38.13
2022-11-20T00:18:23.746Z,41.55
2022-11-20T00:20:31.896Z,38.20
2022-11-20T00:22:38.002Z,41.20
2022-11-20T00:24:43.283Z,39.35
2022-11-20T00:26:47.755Z,38.75
2022-11-20T00:28:55.976Z,37.85
2022-11-20T00:31:05.108Z,39.50
2022-11-20T00:33:09.419Z,42.05
2022-11-20T00:35:13.788Z,45.63
2022-11-20T00:37:18.399Z,40.83
2022-11-20T00:39:24.207Z,39.08
2022-11-20T00:41:30.206Z,38.78
2022-11-20T00:43:34.878Z,38.58
2022-11-20T00:45:39.268Z,40.85
2022-11-20T00:47:44.134Z,42.60
2022-11-20T00:49:48.758Z,42.60
2022-11-20T00:51:53.108Z,46.63
2022-11-20T00:53:58.722Z,34.58
2022-11-20T00:56:06.668Z,36.58
2022-11-20T00:58:14.298Z,30.67
2022-11-20T01:00:19.691Z,38.58
2022-11-20T01:02:23.925Z,40.65
2022-11-20T01:04:28.634Z,36.20
2022-11-20T01:06:35.094Z,42.47
2022-11-20T01:08:40.190Z,47.50
2022-11-20T01:10:44.898Z,43.25
2022-11-20T01:13:10.695Z,47.85
2022-11-20T01:15:14.925Z,44.08
2022-11-20T01:17:19.337Z,43.13
2022-11-20T01:19:27.220Z,43.38
2022-11-20T01:21:33.433Z,39.67
2022-11-20T01:23:40.421Z,43.53
2022-11-20T01:25:44.668Z,41.85
2022-11-20T01:27:50.384Z,45.17
2022-11-20T01:29:59.767Z,35.22
2022-11-20T01:32:07.450Z,40.88
2022-11-20T01:34:14.196Z,44.13
2022-11-20T01:36:20.354Z,44.85
2022-11-20T01:38:24.918Z,41.95
2022-11-20T01:40:29.379Z,46.63
2022-11-20T01:42:51.105Z,39.03
2022-11-20T01:44:59.731Z,44.78
2022-11-20T01:47:06.304Z,42.22
2022-11-20T01:49:18.448Z,41.80
2022-11-20T01:51:30.199Z,44.83
2022-11-20T01:53:37.052Z,30.45
2022-11-20T01:55:47.870Z,41.53
2022-11-20T01:57:53.679Z,39.95
2022-11-20T02:00:04.037Z,39.40
2022-11-20T02:02:17.324Z,41.40
2022-11-20T02:04:23.138Z,41.70
2022-11-20T02:06:31.372Z,42.28
2022-11-20T02:08:36.467Z,40.30
2022-11-20T02:10:41.528Z,40.08
2022-11-20T02:13:03.241Z,39.90
2022-11-20T02:15:30.499Z,38.58
2022-11-20T02:17:35.527Z,29.50
2022-11-20T02:19:39.834Z,37.00
2022-11-20T02:21:51.326Z,37.75
2022-11-20T02:24:04.133Z,38.88
2022-11-20T02:26:13.209Z,39.08
2022-11-20T02:28:19.428Z,38.75
2022-11-20T02:30:23.932Z,36.08
2022-11-20T02:32:30.554Z,36.95
2022-11-20T02:34:35.694Z,37.25
2022-11-20T02:36:44.396Z,29.27
2022-11-20T02:38:48.957Z,28.92
2022-11-20T02:40:55.893Z,32.47
2022-11-20T02:43:01.286Z,32.08
2022-11-20T02:45:06.816Z,26.75
2022-11-20T02:47:11.814Z,29.23
2022-11-20T02:49:17.725Z,30.00
2022-11-20T02:51:24.359Z,31.58
2022-11-20T02:53:30.282Z,31.83
2022-11-20T02:55:34.863Z,31.40
2022-11-20T02:57:40.587Z,29.25
2022-11-20T02:59:45.025Z,29.63
2022-11-20T03:01:50.106Z,28.20
2022-11-20T03:03:55.888Z,29.63
2022-11-20T03:06:01.691Z,21.00
2022-11-20T03:08:06.290Z,23.98
2022-11-20T03:10:12.234Z,25.20
2022-11-20T03:12:17.014Z,23.50
2022-11-20T03:14:23.073Z,25.05
2022-11-20T03:16:27.384Z,21.10
2022-11-20T03:18:31.732Z,20.38
2022-11-20T03:20:37.114Z,20.75
2022-11-20T03:22:41.753Z,22.30
2022-11-20T03:24:46.364Z,18.98
2022-11-20T03:26:50.637Z,21.92
2022-11-20T03:28:56.383Z,21.67
2022-11-20T03:31:08.367Z,20.73
2022-11-20T03:33:12.899Z,19.75
2022-11-20T03:35:18.396Z,21.23
2022-11-20T03:37:22.796Z,21.95
2022-11-20T03:39:27.751Z,21.17
2022-11-20T03:41:34.281Z,19.10
2022-11-20T03:43:39.087Z,18.77
2022-11-20T03:45:43.305Z,19.55
2022-11-20T03:47:49.546Z,16.27
2022-11-20T03:49:53.980Z,17.83
2022-11-20T03:51:58.283Z,18.05
2022-11-20T03:54:05.402Z,15.82
2022-11-20T03:56:10.623Z,16.77
2022-11-20T03:58:15.503Z,18.40
2022-11-20T04:00:19.959Z,18.40
2022-11-20T04:02:24.824Z,12.13
2022-11-20T04:04:30.821Z,16.20
2022-11-20T04:06:38.407Z,19.15
2022-11-20T04:08:42.811Z,19.45
2022-11-20T04:10:47.522Z,19.25
2022-11-20T04:12:52.178Z,19.10
2022-11-20T04:14:56.537Z,17.98
2022-11-20T04:17:00.834Z,18.70
2022-11-20T04:19:07.296Z,20.98
2022-11-20T04:21:14.126Z,18.38
2022-11-20T04:23:19.061Z,15.38
2022-11-20T04:25:23.428Z,22.55
2022-11-20T04:27:27.782Z,16.80
2022-11-20T04:29:32.618Z,20.10
2022-11-20T04:31:37.548Z,17.48
2022-11-20T04:33:42.054Z,20.88
2022-11-20T04:35:49.358Z,22.85
2022-11-20T04:37:55.857Z,19.95
2022-11-20T04:40:00.112Z,20.70
2022-11-20T04:42:21.609Z,20.38
2022-11-20T04:44:25.926Z,21.10
2022-11-20T04:46:30.976Z,22.35
2022-11-20T04:48:36.971Z,21.65
2022-11-20T04:50:42.955Z,20.88
2022-11-20T04:52:47.779Z,22.23
2022-11-20T04:54:55.240Z,21.23
2022-11-20T04:56:59.579Z,20.27
2022-11-20T04:59:04.447Z,19.35
2022-11-20T05:01:11.657Z,19.63
2022-11-20T05:03:15.921Z,18.85
2022-11-20T05:05:20.704Z,18.90
2022-11-20T05:07:25.021Z,18.48
2022-11-20T05:09:29.558Z,20.17
2022-11-20T05:11:35.553Z,19.30
2022-11-20T05:13:40.521Z,18.27
2022-11-20T05:15:45.306Z,19.17
2022-11-20T05:17:50.944Z,18.25
2022-11-20T05:19:58.501Z,19.80
2022-11-20T05:22:02.754Z,19.35
2022-11-20T05:24:08.299Z,20.42
2022-11-20T05:26:17.155Z,19.88
2022-11-20T05:28:24.157Z,19.58
2022-11-20T05:30:28.716Z,20.98
2022-11-20T05:32:33.286Z,19.98
2022-11-20T05:34:38.093Z,18.40
2022-11-20T05:36:42.583Z,19.00
2022-11-20T05:38:50.592Z,17.70
2022-11-20T05:40:55.507Z,17.27
2022-11-20T05:42:59.957Z,18.08
2022-11-20T05:45:07.817Z,17.88
2022-11-20T05:47:12.134Z,16.30
2022-11-20T05:49:17.373Z,18.00
2022-11-20T05:51:22.367Z,30.20
2022-11-20T05:53:27.840Z,22.33
2022-11-20T05:55:32.275Z,16.85
2022-11-20T05:57:37.395Z,19.35
2022-11-20T05:59:42.177Z,19.15
2022-11-20T06:01:47.939Z,20.00
2022-11-20T06:03:53.080Z,20.75
2022-11-20T06:05:57.573Z,22.98
2022-11-20T06:08:03.736Z,16.33
2022-11-20T06:10:08.711Z,16.42
2022-11-20T06:12:13.023Z,17.80
2022-11-20T06:14:17.578Z,17.15
2022-11-20T06:16:22.988Z,15.60
2022-11-20T06:18:30.376Z,19.50
2022-11-20T06:20:39.325Z,13.95
2022-11-20T06:22:46.247Z,13.60
2022-11-20T06:24:50.601Z,12.52
2022-11-20T06:26:55.014Z,12.02
2022-11-20T06:28:59.782Z,10.98
2022-11-20T06:31:04.738Z,12.38
2022-11-20T06:33:08.892Z,11.40
2022-11-20T06:35:14.849Z,11.75
2022-11-20T06:37:19.350Z,10.27
2022-11-20T06:39:24.268Z,11.27
2022-11-20T06:41:29.070Z,10.13
2022-11-20T06:43:36.079Z,9.95
2022-11-20T06:45:40.723Z,8.80
2022-11-20T06:47:44.985Z,7.70
2022-11-20T06:49:49.637Z,6.32
2022-11-20T06:51:55.363Z,6.00
2022-11-20T06:53:59.700Z,5.88
2022-11-20T06:56:05.306Z,5.38
2022-11-20T06:58:10.374Z,6.15
2022-11-20T07:00:16.134Z,5.40
2022-11-20T07:02:21.159Z,5.30
2022-11-20T07:04:25.492Z,6.75
2022-11-20T07:06:29.947Z,6.72
2022-11-20T07:08:36.222Z,5.20
2022-11-20T07:10:40.974Z,5.40
2022-11-20T07:12:45.331Z,6.35
2022-11-20T07:14:50.098Z,5.57
2022-11-20T07:16:54.488Z,5.47
2022-11-20T07:18:58.911Z,7.78
2022-11-20T07:21:03.841Z,7.25
2022-11-20T07:23:08.081Z,5.45
2022-11-20T07:25:14.012Z,6.15
2022-11-20T07:27:18.441Z,7.20
2022-11-20T07:29:23.291Z,5.13
2022-11-20T07:31:28.318Z,5.78
2022-11-20T07:33:32.838Z,6.85
2022-11-20T07:35:37.285Z,5.93
2022-11-20T07:37:41.909Z,6.32
2022-11-20T07:39:46.371Z,6.35
2022-11-20T07:41:52.479Z,5.95
2022-11-20T07:43:58.526Z,4.93
2022-11-20T07:46:04.984Z,5.82
2022-11-20T07:48:09.621Z,5.55
2022-11-20T07:50:14.802Z,5.15
2022-11-20T07:52:21.996Z,5.03
2022-11-20T07:54:26.676Z,5.20
2022-11-20T07:56:31.642Z,5.03
2022-11-20T07:58:38.262Z,5.30
2022-11-20T08:00:43.404Z,5.00
2022-11-20T08:02:47.749Z,5.47
2022-11-20T08:04:52.986Z,4.95
2022-11-20T08:06:57.523Z,5.93
2022-11-20T08:09:02.361Z,5.25
2022-11-20T08:11:24.491Z,5.45
2022-11-20T08:13:48.131Z,6.03
2022-11-20T08:15:55.464Z,5.68
2022-11-20T08:18:29.422Z,5.13
2022-11-20T08:20:29.698Z,5.03
2022-11-20T08:22:34.315Z,5.25
2022-11-20T08:24:38.821Z,5.57
2022-11-20T08:26:43.716Z,6.25
2022-11-20T08:28:48.707Z,4.80
2022-11-20T08:30:59.771Z,4.75
2022-11-20T08:33:06.322Z,5.18
2022-11-20T08:35:11.477Z,4.95
2022-11-20T08:37:16.506Z,5.18
2022-11-20T08:39:21.961Z,5.28
2022-11-20T08:41:28.189Z,4.65
2022-11-20T08:43:32.978Z,5.18
2022-11-20T08:45:38.327Z,5.03
2022-11-20T08:47:44.379Z,5.15
2022-11-20T08:49:49.010Z,5.60
2022-11-20T08:51:56.328Z,4.88
2022-11-20T08:54:01.644Z,5.53
2022-11-20T08:56:07.080Z,4.95
2022-11-20T08:58:11.853Z,5.25
2022-11-20T09:00:18.875Z,4.85
2022-11-20T09:02:23.541Z,4.93
2022-11-20T09:04:29.695Z,5.00
2022-11-20T09:06:34.659Z,5.25
2022-11-20T09:08:39.353Z,5.25
2022-11-20T09:10:44.435Z,4.97
2022-11-20T09:12:51.929Z,5.05
2022-11-20T09:14:57.704Z,4.72
2022-11-20T09:17:02.413Z,5.65
2022-11-20T09:19:34.182Z,7.05
2022-11-20T09:21:33.371Z,5.68
2022-11-20T09:23:39.592Z,5.90
2022-11-20T09:25:44.959Z,6.68
2022-11-20T09:27:50.859Z,6.00
2022-11-20T09:29:55.132Z,6.07
2022-11-20T09:31:59.702Z,7.18
2022-11-20T09:34:04.629Z,23.92
2022-11-20T09:36:10.079Z,11.07
2022-11-20T09:38:16.959Z,13.15
2022-11-20T09:40:24.038Z,7.55
2022-11-20T09:42:43.127Z,8.43
2022-11-20T09:45:13.205Z,12.93
2022-11-20T09:47:26.074Z,7.88
2022-11-20T09:49:41.704Z,7.18
2022-11-20T09:51:55.276Z,6.28
2022-11-20T09:54:13.380Z,6.20
2022-11-20T09:56:22.479Z,5.88
2022-11-20T09:58:36.087Z,7.07
2022-11-20T10:00:40.752Z,7.93
2022-11-20T10:02:49.766Z,6.40
2022-11-20T10:04:59.471Z,7.80
2022-11-20T10:11:54.333Z,7.72
2022-11-20T10:14:03.779Z,7.32
2022-11-20T10:16:20.147Z,7.25
2022-11-20T10:18:37.197Z,6.78
2022-11-20T10:20:48.591Z,7.88
2022-11-20T10:23:29.064Z,7.65
2022-11-20T10:25:41.818Z,7.60
2022-11-20T10:28:01.737Z,8.23
2022-11-20T10:30:11.958Z,9.02
2022-11-20T10:32:19.527Z,8.18
2022-11-20T10:34:28.516Z,8.23
2022-11-20T10:36:38.299Z,7.75
2022-11-20T10:38:50.668Z,7.43
2022-11-20T10:41:20.810Z,7.95
2022-11-20T10:43:34.272Z,7.60
2022-11-20T10:45:57.304Z,8.50
2022-11-20T10:48:13.263Z,7.90
2022-11-20T10:50:22.972Z,7.95
2022-11-20T10:52:35.480Z,8.45
2022-11-20T10:54:46.907Z,7.80
2022-11-20T10:56:54.760Z,9.18
2022-11-20T10:59:29.787Z,8.05
2022-11-20T11:01:41.750Z,8.55
2022-11-20T11:03:46.773Z,7.97
2022-11-20T11:05:57.180Z,8.48
2022-11-20T11:08:01.956Z,7.85
2022-11-20T11:10:17.720Z,8.85
2022-11-20T11:12:24.604Z,9.77
2022-11-20T11:14:30.187Z,8.02
2022-11-20T11:16:34.427Z,8.77
2022-11-20T11:18:39.082Z,8.95
2022-11-20T11:20:53.339Z,9.35
2022-11-20T11:22:58.908Z,8.63
2022-11-20T11:25:03.635Z,9.38
2022-11-20T11:27:17.656Z,9.48
2022-11-20T11:29:23.813Z,9.20
2022-11-20T11:31:29.659Z,12.40
2022-11-20T11:33:35.897Z,17.23
2022-11-20T11:35:51.036Z,11.60
2022-11-20T11:38:04.420Z,10.15
2022-11-20T11:40:28.315Z,9.77
2022-11-20T11:42:33.650Z,10.27
2022-11-20T11:44:56.750Z,9.60
2022-11-20T11:47:01.267Z,8.98
2022-11-20T11:49:17.714Z,20.73
2022-11-20T11:51:23.138Z,20.98
2022-11-20T11:53:28.596Z,16.90
2022-11-20T11:55:37.946Z,12.10
2022-11-20T11:57:49.166Z,10.43
2022-11-20T12:00:03.214Z,11.15
2022-11-20T12:02:24.893Z,13.52
2022-11-20T12:04:44.446Z,11.38
2022-11-20T12:06:55.840Z,12.07
2022-11-20T12:09:04.796Z,12.40
2022-11-20T12:11:18.540Z,12.65
2022-11-20T12:13:42.098Z,12.02
2022-11-20T12:15:50.597Z,11.65
2022-11-20T12:17:55.910Z,11.82
2022-11-20T12:20:00.220Z,12.35
2022-11-20T12:22:11.094Z,13.13
2022-11-20T12:24:38.297Z,12.85
2022-11-20T12:26:57.817Z,13.18
2022-11-20T12:29:12.019Z,13.63
2022-11-20T12:31:48.546Z,12.20
2022-11-20T12:34:13.274Z,12.15
2022-11-20T12:36:30.537Z,11.90
2022-11-20T12:39:09.941Z,12.25
2022-11-20T12:41:37.382Z,11.77
2022-11-20T12:44:07.734Z,12.13
2022-11-20T12:46:25.502Z,11.63
2022-11-20T12:49:02.789Z,11.38
2022-11-20T12:51:37.037Z,9.98
2022-11-20T12:53:50.784Z,11.40
2022-11-20T12:56:04.176Z,10.85
2022-11-20T12:58:14.992Z,10.65
2022-11-20T13:00:22.127Z,10.77
2022-11-20T13:02:32.678Z,10.32
2022-11-20T13:04:54.436Z,11.30
2022-11-20T13:07:00.475Z,11.68
2022-11-20T13:09:07.003Z,11.32
2022-11-20T13:11:19.593Z,11.50
2022-11-20T13:13:32.992Z,11.27
2022-11-20T13:15:48.332Z,11.10
2022-11-20T13:17:58.101Z,10.20
2022-11-20T13:20:07.623Z,11.10
2022-11-20T13:22:13.941Z,11.13
2022-11-20T13:24:31.269Z,10.10
2022-11-20T13:26:35.866Z,10.30
2022-11-20T13:28:41.881Z,10.98
2022-11-20T13:30:53.465Z,10.57
2022-11-20T13:33:01.003Z,11.25
2022-11-20T13:35:07.622Z,11.27
2022-11-20T13:37:29.156Z,11.98
2022-11-20T13:39:35.592Z,18.38
2022-11-20T13:41:41.723Z,13.23
2022-11-20T13:43:49.200Z,14.45
2022-11-20T13:46:00.955Z,11.20
2022-11-20T13:48:20.890Z,11.27
2022-11-20T13:50:44.523Z,11.27
2022-11-20T13:52:58.739Z,13.52
2022-11-20T13:55:15.796Z,17.65
2022-11-20T13:58:00.081Z,15.00
2022-11-20T14:00:12.699Z,13.63
2022-11-20T14:02:20.297Z,15.07
2022-11-20T14:04:30.115Z,15.38
2022-11-20T14:06:41.545Z,16.35
2022-11-20T14:08:50.075Z,14.32
2022-11-20T14:11:05.732Z,14.55
2022-11-20T14:13:17.870Z,14.90
2022-11-20T14:15:31.086Z,14.27
2022-11-20T14:17:37.527Z,15.55
2022-11-20T14:19:43.775Z,15.73
2022-11-20T14:21:50.633Z,15.23
2022-11-20T14:23:56.551Z,15.60
2022-11-20T14:26:01.157Z,15.15
2022-11-20T14:28:06.655Z,15.70
2022-11-20T14:30:17.223Z,16.48
2022-11-20T14:32:31.375Z,17.00
2022-11-20T14:34:41.645Z,17.13
2022-11-20T14:36:48.441Z,17.30
2022-11-20T14:38:54.914Z,18.17
2022-11-20T14:41:09.146Z,18.17
2022-11-20T14:43:22.380Z,18.60
2022-11-20T14:45:27.683Z,17.10
2022-11-20T14:47:34.763Z,18.58
2022-11-20T14:49:40.278Z,17.88
2022-11-20T14:51:44.553Z,17.75
2022-11-20T14:53:50.305Z,17.40
2022-11-20T14:56:00.051Z,17.65
2022-11-20T14:58:07.007Z,17.17
2022-11-20T15:00:22.871Z,17.17
2022-11-20T15:02:27.228Z,16.30
2022-11-20T15:04:31.647Z,16.10
2022-11-20T15:06:36.165Z,15.75
2022-11-20T15:08:40.640Z,16.95
2022-11-20T15:10:51.306Z,17.00
2022-11-20T15:12:58.029Z,16.80
2022-11-20T15:15:03.719Z,15.63
2022-11-20T15:17:11.239Z,14.82
2022-11-20T15:19:20.853Z,15.25
2022-11-20T15:21:25.637Z,16.15
2022-11-20T15:23:30.171Z,15.35
2022-11-20T15:25:34.808Z,17.10
2022-11-20T15:27:43.402Z,16.85
2022-11-20T15:29:47.784Z,15.32
2022-11-20T15:31:53.840Z,16.30
2022-11-20T15:33:58.125Z,16.85
2022-11-20T15:36:03.412Z,18.67
2022-11-20T15:38:07.827Z,18.10
2022-11-20T15:40:13.105Z,20.40
2022-11-20T15:42:17.994Z,23.48
2022-11-20T15:44:23.956Z,25.85
2022-11-20T15:46:30.806Z,25.80
2022-11-20T15:48:42.092Z,29.17
2022-11-20T15:50:57.193Z,29.05
2022-11-20T15:53:01.800Z,27.52
2022-11-20T15:55:10.254Z,26.58
2022-11-20T15:57:15.214Z,28.20
2022-11-20T15:59:19.477Z,24.75
2022-11-20T16:01:25.256Z,23.67
2022-11-20T16:03:32.394Z,20.23
2022-11-20T16:05:36.917Z,20.08
2022-11-20T16:07:41.250Z,18.42
2022-11-20T16:09:45.914Z,19.30
2022-11-20T16:11:49.974Z,18.58
2022-11-20T16:14:11.706Z,17.75
2022-11-20T16:16:23.739Z,17.13
2022-11-20T16:18:29.633Z,16.35
2022-11-20T16:20:33.987Z,17.27
2022-11-20T16:22:38.203Z,15.88
2022-11-20T16:24:42.488Z,15.63
2022-11-20T16:26:46.700Z,16.45
2022-11-20T16:28:59.804Z,16.88
2022-11-20T16:31:11.039Z,16.95
2022-11-20T16:33:16.844Z,17.83
2022-11-20T16:35:22.786Z,19.48
2022-11-20T16:37:27.242Z,19.38
2022-11-20T16:39:31.622Z,19.60
2022-11-20T16:41:37.273Z,23.10
2022-11-20T16:43:48.115Z,23.13
2022-11-20T16:45:52.518Z,22.48
2022-11-20T16:47:56.792Z,23.13
2022-11-20T16:50:01.000Z,22.05
2022-11-20T16:52:06.817Z,22.55
2022-11-20T16:54:20.887Z,21.23
2022-11-20T16:56:27.661Z,20.75
2022-11-20T16:58:31.863Z,21.63
2022-11-20T17:00:38.266Z,19.85
2022-11-20T17:02:42.451Z,21.90
2022-11-20T17:04:46.844Z,21.70
2022-11-20T17:06:51.244Z,22.23
2022-11-20T17:08:58.027Z,25.35
2022-11-20T17:11:07.194Z,25.98
2022-11-20T17:13:11.528Z,25.70
2022-11-20T17:15:16.121Z,24.02
2022-11-20T17:17:20.518Z,25.75
2022-11-20T17:19:24.772Z,24.52
2022-11-20T17:21:29.742Z,25.45
2022-11-20T17:23:34.280Z,23.23
2022-11-20T17:25:40.010Z,24.55
2022-11-20T17:27:44.058Z,26.73
2022-11-20T17:29:48.489Z,25.23
2022-11-20T17:31:52.769Z,23.88
2022-11-20T17:33:57.130Z,23.73
2022-11-20T17:36:01.408Z,23.95
2022-11-20T17:38:07.710Z,24.25
2022-11-20T17:40:12.540Z,25.13
2022-11-20T17:42:29.867Z,26.45
2022-11-20T17:44:34.723Z,24.35
2022-11-20T17:46:39.451Z,25.30
2022-11-20T17:48:44.983Z,26.42
2022-11-20T17:50:52.476Z,24.17
2022-11-20T17:52:56.786Z,26.08
2022-11-20T17:55:01.429Z,31.20
2022-11-20T17:57:22.947Z,28.70
2022-11-20T17:59:28.687Z,41.78
2022-11-20T18:01:33.418Z,35.05
2022-11-20T18:03:39.954Z,27.30
2022-11-20T18:05:45.094Z,26.98
2022-11-20T18:07:53.414Z,32.05
2022-11-20T18:09:57.837Z,32.45
2022-11-20T18:12:02.484Z,36.05
2022-11-20T18:14:29.630Z,37.33
2022-11-20T18:16:39.251Z,34.28
2022-11-20T18:18:44.165Z,38.42
2022-11-20T18:20:55.683Z,32.15
2022-11-20T18:23:00.362Z,28.60
2022-11-20T18:25:05.128Z,28.77
2022-11-20T18:27:15.027Z,25.13
2022-11-20T18:29:19.875Z,32.88
2022-11-20T18:31:25.334Z,22.33
2022-11-20T18:33:32.312Z,23.63
2022-11-20T18:35:42.995Z,23.92
2022-11-20T18:37:47.351Z,27.17
2022-11-20T18:39:53.095Z,27.27
2022-11-20T18:42:14.658Z,26.30
2022-11-20T18:44:38.030Z,27.38
2022-11-20T18:46:43.843Z,26.45
2022-11-20T18:48:54.707Z,25.17
2022-11-20T18:51:07.207Z,21.05
2022-11-20T18:53:13.276Z,19.95
2022-11-20T18:55:17.996Z,19.45
2022-11-20T18:57:25.008Z,18.85
2022-11-20T18:59:32.254Z,21.05
2022-11-20T19:01:38.959Z,20.38
2022-11-20T19:03:45.199Z,19.10
2022-11-20T19:05:51.134Z,18.83
2022-11-20T19:07:56.097Z,18.08
2022-11-20T19:10:03.864Z,18.50
2022-11-20T19:12:10.312Z,18.92
2022-11-20T19:14:14.676Z,19.17
2022-11-20T19:16:22.550Z,18.83
2022-11-20T19:18:27.303Z,18.23
2022-11-20T19:20:32.040Z,19.30
2022-11-20T19:22:39.089Z,17.95
2022-11-20T19:24:43.894Z,17.42
2022-11-20T19:26:48.290Z,18.85
2022-11-20T19:28:52.493Z,17.70
2022-11-20T19:30:57.017Z,17.92
2022-11-20T19:33:01.322Z,18.25
2022-11-20T19:35:06.340Z,18.45
2022-11-20T19:37:14.338Z,19.02
2022-11-20T19:39:20.727Z,19.85
2022-11-20T19:41:31.069Z,19.40
2022-11-20T19:43:36.317Z,20.80
2022-11-20T19:45:40.788Z,20.77
2022-11-20T19:48:06.597Z,21.88
2022-11-20T19:50:10.289Z,22.50
2022-11-20T19:52:15.066Z,22.55
2022-11-20T19:54:21.475Z,22.30
2022-11-20T19:56:27.644Z,22.05
2022-11-20T19:58:32.463Z,22.33
2022-11-20T20:00:39.755Z,21.40
2022-11-20T20:02:44.099Z,21.90
2022-11-20T20:04:48.460Z,22.67
2022-11-20T20:06:53.414Z,21.90
2022-11-20T20:08:59.175Z,27.33
2022-11-20T20:11:11.939Z,26.50
2022-11-20T20:13:16.430Z,24.25
2022-11-20T20:15:21.181Z,27.23
2022-11-20T20:17:25.687Z,34.67
2022-11-20T20:19:30.121Z,48.03
2022-11-20T20:21:36.452Z,33.97
2022-11-20T20:23:41.795Z,28.02
2022-11-20T20:25:49.717Z,30.88
2022-11-20T20:27:56.061Z,32.30
2022-11-20T20:30:00.554Z,23.25
2022-11-20T20:32:04.888Z,30.23
2022-11-20T20:34:09.949Z,29.02
2022-11-20T20:36:16.449Z,27.40
2022-11-20T20:38:22.379Z,25.70
2022-11-20T20:40:26.770Z,27.92
2022-11-20T20:42:32.343Z,29.13
2022-11-20T20:44:55.462Z,29.95
2022-11-20T20:47:00.253Z,28.95
2022-11-20T20:49:05.242Z,32.30
2022-11-20T20:51:09.876Z,44.42
2022-11-20T20:53:14.705Z,33.08
2022-11-20T20:55:19.571Z,28.52
2022-11-20T20:57:25.007Z,29.83
2022-11-20T20:59:29.863Z,31.42
2022-11-20T21:01:36.325Z,29.23
2022-11-20T21:03:40.757Z,29.60
2022-11-20T21:05:45.191Z,30.63
2022-11-20T21:08:03.387Z,41.85
2022-11-20T21:10:08.247Z,33.85
2022-11-20T21:12:12.942Z,31.70
2022-11-20T21:14:17.407Z,35.25
2022-11-20T21:16:25.281Z,33.22
2022-11-20T21:18:31.340Z,34.80
2022-11-20T21:20:53.037Z,37.00
2022-11-20T21:22:57.433Z,36.95
2022-11-20T21:25:01.749Z,36.42
2022-11-20T21:27:07.403Z,37.50
2022-11-20T21:29:12.167Z,37.70
2022-11-20T21:31:18.891Z,36.08
2022-11-20T21:33:23.265Z,36.38
2022-11-20T21:35:29.201Z,34.58
2022-11-20T21:37:37.154Z,33.67
2022-11-20T21:39:51.686Z,33.05
2022-11-20T21:41:56.081Z,32.15
2022-11-20T21:46:28.384Z,33.40
2022-11-20T21:48:33.777Z,34.72
2022-11-20T21:50:39.647Z,33.28
2022-11-20T21:52:43.888Z,33.95
2022-11-20T21:54:48.346Z,33.85
2022-11-20T21:56:52.757Z,35.33
2022-11-20T21:58:57.384Z,36.55
2022-11-20T22:01:01.715Z,34.30
2022-11-20T22:03:06.369Z,35.00
2022-11-20T22:05:11.253Z,35.67
2022-11-20T22:07:16.901Z,37.95
2022-11-20T22:09:21.428Z,36.33
2022-11-20T22:11:25.937Z,35.90
2022-11-20T22:13:47.988Z,33.47
2022-11-20T22:16:00.827Z,33.95
2022-11-20T22:18:15.188Z,35.20
2022-11-20T22:20:19.619Z,35.92
2022-11-20T22:22:25.505Z,35.25
2022-11-20T22:24:29.821Z,35.70
2022-11-20T22:26:40.163Z,37.28
2022-11-20T22:28:49.100Z,36.58
2022-11-20T22:30:53.461Z,34.20
2022-11-20T22:32:57.891Z,33.13
2022-11-20T22:35:02.403Z,36.45
2022-11-20T22:37:06.935Z,38.13
2022-11-20T22:39:12.814Z,37.53
2022-11-20T22:41:18.947Z,37.35
2022-11-20T22:43:23.406Z,34.45
2022-11-20T22:45:27.813Z,36.38
2022-11-20T22:47:32.477Z,33.85
2022-11-20T22:49:36.846Z,34.83
2022-11-20T22:51:43.001Z,36.30
2022-11-20T22:53:47.683Z,38.30
2022-11-20T22:55:53.432Z,35.95
2022-11-20T22:57:58.317Z,31.92
2022-11-20T23:00:02.627Z,34.80
2022-11-20T23:02:07.797Z,31.55
2022-11-20T23:04:13.491Z,35.55
2022-11-20T23:06:19.404Z,33.13
2022-11-20T23:08:23.780Z,33.38
2022-11-20T23:10:28.452Z,32.90
2022-11-20T23:12:34.256Z,31.23
2022-11-20T23:14:38.722Z,31.20
2022-11-20T23:16:43.597Z,27.67
2022-11-20T23:18:48.224Z,29.05
2022-11-20T23:20:52.552Z,28.00
2022-11-20T23:22:57.110Z,27.48
2022-11-20T23:25:01.677Z,26.65
2022-11-20T23:27:08.343Z,29.02
2022-11-20T23:29:14.364Z,27.45
2022-11-20T23:31:18.824Z,28.08
2022-11-20T23:33:23.238Z,26.63
2022-11-20T23:35:27.651Z,26.30
2022-11-20T23:37:32.322Z,25.55
2022-11-20T23:39:36.752Z,26.38
2022-11-20T23:41:41.040Z,26.20
2022-11-20T23:43:46.563Z,25.02
2022-11-20T23:45:54.220Z,25.30
2022-11-20T23:47:58.982Z,26.63
2022-11-20T23:50:03.802Z,25.08
2022-11-20T23:52:08.278Z,25.02
2022-11-20T23:54:12.643Z,25.60
2022-11-20T23:56:17.066Z,25.27
2022-11-20T23:58:24.665Z,26.15
